Terminal Aerodrome Forecast
Issued by NWS

Home | Current Version | Previous Version | Text Only | Print | Product List | Glossary On
Versions: 1 2 3 4 5 6 7 8 9 10 11 12 13 14 15 16 17 18 19
350
FTUS43 KILX 261738
TAFBMI
TAF
KBMI 261738Z 2618/2718 06009KT P6SM VCSH SCT035 BKN120
     FM270300 09007KT P6SM VCSH SCT035 BKN120
     FM270800 14007KT 4SM -SHRA BR VCTS BKN035CB
     FM271600 17009KT P6SM VCSH BKN035=

USA.gov is the U.S. government's official web portal to all federal, state and local government web resources and services.